createdAt,value
2017-04-18T00:00:23.113Z,0
2017-04-18T00:01:23.818Z,0
2017-04-18T00:02:23.814Z,0
2017-04-18T00:03:23.837Z,0
2017-04-18T00:04:23.560Z,0
2017-04-18T00:05:24.184Z,0
2017-04-18T00:06:23.283Z,0
2017-04-18T00:07:23.651Z,0
2017-04-18T00:08:24.018Z,0
2017-04-18T00:09:24.235Z,0
2017-04-18T00:10:24.272Z,0
2017-04-18T00:11:24.041Z,0
2017-04-18T00:12:23.762Z,0
2017-04-18T00:13:23.799Z,0
2017-04-18T00:14:23.512Z,0
2017-04-18T00:15:24.404Z,0
2017-04-18T00:16:23.877Z,0
2017-04-18T00:17:23.914Z,0
2017-04-18T00:18:23.934Z,0
2017-04-18T00:19:24.279Z,0
2017-04-18T00:20:24.544Z,0
2017-04-18T00:21:24.321Z,0
2017-04-18T00:22:23.720Z,0
2017-04-18T00:23:24.070Z,0
2017-04-18T00:24:24.410Z,0
2017-04-18T00:25:24.052Z,0
2017-04-18T00:26:24.456Z,0
2017-04-18T00:27:24.479Z,0
2017-04-18T00:28:23.890Z,0
2017-04-18T00:29:24.236Z,0
2017-04-18T00:30:24.196Z,0
2017-04-18T00:31:24.276Z,0
2017-04-18T00:32:24.604Z,0
2017-04-18T00:33:24.022Z,0
2017-04-18T00:34:24.420Z,0
2017-04-18T00:35:24.712Z,0
2017-04-18T00:36:24.729Z,0
2017-04-18T00:37:24.433Z,0
2017-04-18T00:38:24.470Z,0
2017-04-18T00:39:24.483Z,0
2017-04-18T00:40:24.776Z,0
2017-04-18T00:41:24.556Z,0
2017-04-18T00:42:24.255Z,0
2017-04-18T00:43:23.973Z,0
2017-04-18T00:44:24.939Z,0
2017-04-18T00:45:24.908Z,0
2017-04-18T00:46:24.681Z,0
2017-04-18T00:47:25.024Z,0
2017-04-18T00:48:25.049Z,0
2017-04-18T00:49:25.074Z,0
2017-04-18T00:50:25.350Z,0
2017-04-18T00:51:24.504Z,0
2017-04-18T00:52:24.841Z,0
2017-04-18T00:53:25.181Z,0
2017-04-18T00:54:24.905Z,0
2017-04-18T00:55:25.170Z,0
2017-04-18T00:56:25.260Z,0
2017-04-18T00:57:25.292Z,0
2017-04-18T00:58:25.001Z,0
2017-04-18T00:59:25.340Z,0
2017-04-18T01:00:25.215Z,0
2017-04-18T01:01:25.206Z,0
2017-04-18T01:02:25.107Z,0
2017-04-18T01:03:24.817Z,0
2017-04-18T01:04:25.158Z,0
2017-04-18T01:05:25.751Z,0
2017-04-18T01:06:25.220Z,0
2017-04-18T01:07:24.612Z,0
2017-04-18T01:08:25.584Z,0
2017-04-18T01:09:25.421Z,0
2017-04-18T01:10:25.264Z,0
2017-04-18T01:11:25.347Z,0
2017-04-18T01:12:25.068Z,0
2017-04-18T01:13:25.091Z,0
2017-04-18T01:14:25.118Z,0
2017-04-18T01:15:25.397Z,0
2017-04-18T01:16:25.798Z,0
2017-04-18T01:17:25.501Z,0
2017-04-18T01:18:26.091Z,0
2017-04-18T01:19:25.564Z,0
2017-04-18T01:20:25.841Z,0
2017-04-18T01:21:25.926Z,0
2017-04-18T01:22:25.651Z,0
2017-04-18T01:23:25.668Z,0
2017-04-18T01:24:25.381Z,0
2017-04-18T01:25:26.280Z,0
2017-04-18T01:26:25.509Z,0
2017-04-18T01:27:25.775Z,0
2017-04-18T01:28:26.111Z,0
2017-04-18T01:29:26.137Z,0
2017-04-18T01:30:25.866Z,0
2017-04-18T01:31:25.817Z,0
2017-04-18T01:32:26.222Z,0
2017-04-18T01:33:25.632Z,0
2017-04-18T01:34:25.961Z,0
2017-04-18T01:35:26.297Z,0
2017-04-18T01:36:25.954Z,0
2017-04-18T01:37:25.423Z,0
2017-04-18T01:38:26.072Z,0
2017-04-18T01:39:26.124Z,0
2017-04-18T01:40:26.116Z,0
2017-04-18T01:41:26.705Z,0
2017-04-18T01:42:26.179Z,0
2017-04-18T01:43:25.728Z,0
2017-04-18T01:44:26.540Z,0
2017-04-18T01:45:26.256Z,0
2017-04-18T01:46:26.853Z,0
2017-04-18T01:47:26.622Z,0
2017-04-18T01:48:26.019Z,0
2017-04-18T01:49:26.679Z,0
2017-04-18T01:50:26.077Z,0
2017-04-18T01:51:27.069Z,0
2017-04-18T01:52:26.438Z,0
2017-04-18T01:53:26.472Z,0
2017-04-18T01:54:26.494Z,0
2017-04-18T01:55:26.525Z,0
2017-04-18T01:56:26.489Z,0
2017-04-18T01:57:26.255Z,0
2017-04-18T01:58:26.613Z,0
2017-04-18T01:59:27.039Z,0
2017-04-18T02:00:26.967Z,0
2017-04-18T02:01:26.941Z,0
2017-04-18T02:02:27.021Z,0
2017-04-18T02:03:26.773Z,0
2017-04-18T02:04:26.438Z,0
2017-04-18T02:05:26.780Z,0
2017-04-18T02:06:27.059Z,0
2017-04-18T02:07:27.150Z,0
2017-04-18T02:08:26.601Z,0
2017-04-18T02:09:26.579Z,0
2017-04-18T02:10:26.910Z,0
2017-04-18T02:11:27.509Z,0
2017-04-18T02:12:26.669Z,0
2017-04-18T02:13:27.008Z,0
2017-04-18T02:14:27.349Z,0
2017-04-18T02:15:27.040Z,0
2017-04-18T02:16:27.324Z,0
2017-04-18T02:17:27.102Z,0
2017-04-18T02:18:27.438Z,0
2017-04-18T02:19:26.903Z,0
2017-04-18T02:20:27.494Z,0
2017-04-18T02:21:27.496Z,0
2017-04-18T02:22:27.261Z,0
2017-04-18T02:23:26.945Z,0
2017-04-18T02:24:27.601Z,0
2017-04-18T02:25:27.782Z,0
2017-04-18T02:26:27.907Z,0
2017-04-18T02:27:27.056Z,0
2017-04-18T02:28:27.394Z,0
2017-04-18T02:29:27.418Z,0
2017-04-18T02:30:27.449Z,0
2017-04-18T02:31:28.072Z,0
2017-04-18T02:32:27.700Z,0
2017-04-18T02:33:27.402Z,0
2017-04-18T02:34:27.246Z,0
2017-04-18T02:35:27.582Z,0
2017-04-18T02:36:28.166Z,0
2017-04-18T02:37:27.316Z,0
2017-04-18T02:38:27.969Z,0
2017-04-18T02:39:27.994Z,0
2017-04-18T02:40:27.743Z,0
2017-04-18T02:41:28.306Z,0
2017-04-18T02:42:27.760Z,0
2017-04-18T02:43:28.102Z,0
2017-04-18T02:44:28.116Z,0
2017-04-18T02:45:27.532Z,0
2017-04-18T02:46:28.120Z,0
2017-04-18T02:47:27.273Z,0
2017-04-18T02:48:27.608Z,0
2017-04-18T02:49:27.404Z,0
2017-04-18T02:50:27.661Z,0
2017-04-18T02:51:28.266Z,0
2017-04-18T02:52:27.715Z,0
2017-04-18T02:53:28.045Z,0
2017-04-18T02:54:28.078Z,0
2017-04-18T02:55:28.108Z,0
2017-04-18T02:56:28.378Z,0
2017-04-18T02:57:27.843Z,0
2017-04-18T02:58:27.875Z,0
2017-04-18T02:59:28.217Z,0
2017-04-18T03:00:28.232Z,0
2017-04-18T03:01:28.518Z,0
2017-04-18T03:02:28.286Z,0
2017-04-18T03:03:28.319Z,0
2017-04-18T03:04:28.657Z,0
2017-04-18T03:05:28.700Z,0
2017-04-18T03:06:28.646Z,0
2017-04-18T03:07:28.422Z,0
2017-04-18T03:08:28.766Z,0
2017-04-18T03:09:28.471Z,0
2017-04-18T03:10:28.494Z,0
2017-04-18T03:11:28.773Z,0
2017-04-18T03:12:28.871Z,0
2017-04-18T03:13:28.890Z,0
2017-04-18T03:14:28.618Z,0
2017-04-18T03:15:28.945Z,0
2017-04-18T03:16:28.605Z,0
2017-04-18T03:17:28.692Z,0
2017-04-18T03:18:28.715Z,0
2017-04-18T03:19:28.736Z,0
2017-04-18T03:20:29.076Z,0
2017-04-18T03:21:29.040Z,0
2017-04-18T03:22:28.506Z,0
2017-04-18T03:23:29.006Z,0
2017-04-18T03:24:28.555Z,0
2017-04-18T03:25:29.215Z,0
2017-04-18T03:26:29.488Z,0
2017-04-18T03:27:28.625Z,0
2017-04-18T03:28:28.962Z,0
2017-04-18T03:29:28.991Z,0
2017-04-18T03:30:28.703Z,0
2017-04-18T03:31:29.096Z,0
2017-04-18T03:32:29.376Z,0
2017-04-18T03:33:29.405Z,0
2017-04-18T03:34:29.137Z,0
2017-04-18T03:35:29.468Z,0
2017-04-18T03:36:29.739Z,0
2017-04-18T03:37:28.934Z,0
2017-04-18T03:38:29.565Z,0
2017-04-18T03:39:29.783Z,0
2017-04-18T03:40:29.278Z,0
2017-04-18T03:41:29.563Z,0
2017-04-18T03:42:29.645Z,0
2017-04-18T03:43:29.049Z,0
2017-04-18T03:44:29.382Z,0
2017-04-18T03:45:29.416Z,0
2017-04-18T03:46:29.691Z,0
2017-04-18T03:47:29.934Z,0
2017-04-18T03:48:29.486Z,0
2017-04-18T03:49:29.522Z,0
2017-04-18T03:50:29.862Z,0
2017-04-18T03:51:30.131Z,0
2017-04-18T03:52:29.912Z,0
2017-04-18T03:53:29.933Z,0
2017-04-18T03:54:29.965Z,0
2017-04-18T03:55:29.682Z,0
2017-04-18T03:56:29.639Z,0
2017-04-18T03:57:30.037Z,0
2017-04-18T03:58:30.079Z,0
2017-04-18T03:59:29.774Z,0
2017-04-18T04:00:29.498Z,0
2017-04-18T04:01:29.783Z,0
2017-04-18T04:02:30.172Z,0
2017-04-18T04:03:29.893Z,0
2017-04-18T04:04:29.904Z,0
2017-04-18T04:05:30.250Z,0
2017-04-18T04:06:29.905Z,0
2017-04-18T04:07:29.992Z,0
2017-04-18T04:08:29.708Z,0
2017-04-18T04:09:29.404Z,0
2017-04-18T04:10:30.070Z,0
2017-04-18T04:11:30.671Z,0
2017-04-18T04:12:30.131Z,0
2017-04-18T04:13:30.468Z,0
2017-04-18T04:14:30.180Z,0
2017-04-18T04:15:30.514Z,0
2017-04-18T04:16:30.823Z,0
2017-04-18T04:17:30.254Z,0
2017-04-18T04:18:29.659Z,0
2017-04-18T04:19:30.625Z,0
2017-04-18T04:20:30.640Z,0
2017-04-18T04:21:30.927Z,0
2017-04-18T04:22:30.615Z,0
2017-04-18T04:23:30.732Z,0
2017-04-18T04:24:30.748Z,0
2017-04-18T04:25:30.478Z,0
2017-04-18T04:26:31.058Z,0
2017-04-18T04:27:30.832Z,0
2017-04-18T04:28:30.538Z,0
2017-04-18T04:29:30.893Z,0
2017-04-18T04:30:30.592Z,0
2017-04-18T04:31:31.198Z,0
2017-04-18T04:32:30.638Z,0
2017-04-18T04:33:30.984Z,0
2017-04-18T04:34:31.007Z,0
2017-04-18T04:35:30.723Z,0
2017-04-18T04:36:31.318Z,0
2017-04-18T04:37:31.080Z,0
2017-04-18T04:38:31.115Z,0
2017-04-18T04:39:30.515Z,0
2017-04-18T04:40:30.854Z,0
2017-04-18T04:41:30.809Z,0
2017-04-18T04:42:30.906Z,0
2017-04-18T04:43:30.606Z,0
2017-04-18T04:44:31.268Z,0
2017-04-18T04:45:31.408Z,0
2017-04-18T04:46:30.636Z,0
2017-04-18T04:47:30.710Z,0
2017-04-18T04:48:31.060Z,0
2017-04-18T04:49:31.394Z,0
2017-04-18T04:50:31.424Z,0
2017-04-18T04:51:31.396Z,0
2017-04-18T04:52:31.166Z,0
2017-04-18T04:53:31.647Z,0
2017-04-18T04:54:31.216Z,0
2017-04-18T04:55:30.933Z,0
2017-04-18T04:56:31.845Z,0
2017-04-18T04:57:31.302Z,0
2017-04-18T04:58:31.635Z,0
2017-04-18T04:59:31.655Z,0
2017-04-18T05:00:31.692Z,0
2017-04-18T05:01:31.966Z,0
2017-04-18T05:02:31.729Z,0
2017-04-18T05:03:31.769Z,0
2017-04-18T05:04:31.473Z,0
2017-04-18T05:05:31.811Z,0
2017-04-18T05:06:32.129Z,0
2017-04-18T05:07:31.932Z,0
2017-04-18T05:08:31.900Z,0
2017-04-18T05:09:31.955Z,0
2017-04-18T05:10:31.948Z,0
2017-04-18T05:11:31.340Z,0
2017-04-18T05:12:32.253Z,0
2017-04-18T05:13:31.705Z,0
2017-04-18T05:14:32.051Z,0
2017-04-18T05:15:32.084Z,0
2017-04-18T05:16:32.109Z,0
2017-04-18T05:17:32.075Z,0
2017-04-18T05:18:32.167Z,0
2017-04-18T05:19:32.186Z,0
2017-04-18T05:20:31.575Z,0
2017-04-18T05:21:31.927Z,0
2017-04-18T05:22:32.508Z,0
2017-04-18T05:23:32.306Z,0
2017-04-18T05:24:31.682Z,0
2017-04-18T05:25:32.025Z,5
2017-04-18T05:26:32.056Z,5
2017-04-18T05:27:32.642Z,5
2017-04-18T05:28:32.426Z,5
2017-04-18T05:29:32.131Z,5
2017-04-18T05:30:32.478Z,5
2017-04-18T05:31:32.216Z,5
2017-04-18T05:32:32.460Z,5
2017-04-18T05:33:32.142Z,5
2017-04-18T05:34:32.269Z,5
2017-04-18T05:35:32.299Z,5
2017-04-18T05:36:32.634Z,5
2017-04-18T05:37:32.596Z,5
2017-04-18T05:38:32.698Z,5
2017-04-18T05:39:32.711Z,5
2017-04-18T05:40:32.440Z,5
2017-04-18T05:41:32.810Z,5
2017-04-18T05:42:33.071Z,5
2017-04-18T05:43:32.828Z,5
2017-04-18T05:44:32.850Z,5
2017-04-18T05:45:32.546Z,5
2017-04-18T05:46:31.956Z,5
2017-04-18T05:47:33.180Z,5
2017-04-18T05:48:32.732Z,5
2017-04-18T05:49:32.355Z,5
2017-04-18T05:50:33.000Z,5
2017-04-18T05:51:33.027Z,5
2017-04-18T05:52:32.991Z,5
2017-04-18T05:53:32.777Z,5
2017-04-18T05:54:32.802Z,5
2017-04-18T05:55:32.821Z,5
2017-04-18T05:56:32.573Z,5
2017-04-18T05:57:32.499Z,5
2017-04-18T05:58:32.897Z,5
2017-04-18T05:59:32.940Z,5
2017-04-18T06:00:33.276Z,5
2017-04-18T06:01:32.674Z,5
2017-04-18T06:02:33.563Z,5
2017-04-18T06:03:33.351Z,5
2017-04-18T06:04:33.369Z,5
2017-04-18T06:05:33.406Z,5
2017-04-18T06:06:33.435Z,5
2017-04-18T06:07:33.705Z,5
2017-04-18T06:08:33.479Z,10
2017-04-18T06:09:33.509Z,5
2017-04-18T06:10:32.911Z,5
2017-04-18T06:11:32.939Z,5
2017-04-18T06:12:33.906Z,5
2017-04-18T06:13:33.297Z,5
2017-04-18T06:14:33.015Z,5
2017-04-18T06:15:33.676Z,5
2017-04-18T06:16:33.071Z,5
2017-04-18T06:17:33.665Z,10
2017-04-18T06:18:33.428Z,10
2017-04-18T06:19:33.760Z,10
2017-04-18T06:20:33.725Z,10
2017-04-18T06:21:33.518Z,10
2017-04-18T06:22:33.790Z,10
2017-04-18T06:23:33.870Z,10
2017-04-18T06:24:33.592Z,10
2017-04-18T06:25:33.625Z,15
2017-04-18T06:26:33.653Z,15
2017-04-18T06:27:33.930Z,15
2017-04-18T06:28:34.011Z,15
2017-04-18T06:29:33.728Z,15
2017-04-18T06:30:34.067Z,15
2017-04-18T06:31:34.090Z,15
2017-04-18T06:32:34.055Z,15
2017-04-18T06:33:34.148Z,15
2017-04-18T06:34:33.545Z,10
2017-04-18T06:35:33.960Z,10
2017-04-18T06:36:34.229Z,10
2017-04-18T06:37:34.506Z,10
2017-04-18T06:38:34.279Z,10
2017-04-18T06:39:34.305Z,10
2017-04-18T06:40:34.344Z,10
2017-04-18T06:41:34.055Z,10
2017-04-18T06:42:34.325Z,10
2017-04-18T06:43:34.428Z,10
2017-04-18T06:44:34.124Z,10
2017-04-18T06:45:34.469Z,10
2017-04-18T06:46:34.498Z,10
2017-04-18T06:47:34.769Z,10
2017-04-18T06:48:34.560Z,10
2017-04-18T06:49:34.571Z,10
2017-04-18T06:50:34.612Z,10
2017-04-18T06:51:34.408Z,10
2017-04-18T06:52:34.602Z,10
2017-04-18T06:53:34.370Z,10
2017-04-18T06:54:34.699Z,10
2017-04-18T06:55:34.744Z,10
2017-04-18T06:56:33.829Z,10
2017-04-18T06:57:34.729Z,10
2017-04-18T06:58:34.822Z,10
2017-04-18T06:59:34.222Z,10
2017-04-18T07:00:34.927Z,10
2017-04-18T07:01:34.275Z,10
2017-04-18T07:02:34.868Z,10
2017-04-18T07:03:34.645Z,10
2017-04-18T07:04:34.671Z,10
2017-04-18T07:05:34.691Z,10
2017-04-18T07:06:34.712Z,10
2017-04-18T07:07:35.314Z,10
2017-04-18T07:08:34.774Z,10
2017-04-18T07:09:34.476Z,10
2017-04-18T07:10:35.138Z,10
2017-04-18T07:11:35.163Z,10
2017-04-18T07:12:35.131Z,10
2017-04-18T07:13:34.914Z,10
2017-04-18T07:14:34.934Z,10
2017-04-18T07:15:34.954Z,10
2017-04-18T07:16:35.608Z,10
2017-04-18T07:17:35.261Z,10
2017-04-18T07:18:35.350Z,10
2017-04-18T07:19:35.382Z,15
2017-04-18T07:20:35.100Z,15
2017-04-18T07:21:35.426Z,15
2017-04-18T07:22:35.707Z,15
2017-04-18T07:23:35.500Z,15
2017-04-18T07:24:35.482Z,15
2017-04-18T07:25:34.910Z,15
2017-04-18T07:26:35.567Z,15
2017-04-18T07:27:35.531Z,15
2017-04-18T07:28:35.309Z,15
2017-04-18T07:29:35.651Z,20
2017-04-18T07:30:35.678Z,20
2017-04-18T07:31:35.704Z,20
2017-04-18T07:32:35.995Z,20
2017-04-18T07:33:35.751Z,30
2017-04-18T07:34:35.787Z,30
2017-04-18T07:35:35.487Z,20
2017-04-18T07:36:35.826Z,25
2017-04-18T07:37:36.115Z,15
2017-04-18T07:38:35.898Z,15
2017-04-18T07:39:35.628Z,20
2017-04-18T07:40:35.947Z,25
2017-04-18T07:41:35.970Z,20
2017-04-18T07:42:35.931Z,25
2017-04-18T07:43:35.396Z,15
2017-04-18T07:44:36.035Z,20
2017-04-18T07:45:35.761Z,20
2017-04-18T07:46:36.097Z,15
2017-04-18T07:47:36.068Z,20
2017-04-18T07:48:36.173Z,20
2017-04-18T07:49:35.965Z,20
2017-04-18T07:50:35.586Z,25
2017-04-18T07:51:35.922Z,25
2017-04-18T07:52:36.502Z,15
2017-04-18T07:53:35.976Z,15
2017-04-18T07:54:36.335Z,20
2017-04-18T07:55:36.044Z,35
2017-04-18T07:56:35.741Z,50
2017-04-18T07:57:36.334Z,55
2017-04-18T07:58:36.160Z,20
2017-04-18T07:59:35.852Z,65
2017-04-18T08:00:36.169Z,70
2017-04-18T08:01:36.189Z,65
2017-04-18T08:02:36.475Z,40
2017-04-18T08:03:36.247Z,55
2017-04-18T08:04:36.293Z,45
2017-04-18T08:05:36.620Z,45
2017-04-18T08:06:36.021Z,40
2017-04-18T08:07:36.047Z,30
2017-04-18T08:08:36.319Z,35
2017-04-18T08:09:36.411Z,40
2017-04-18T08:10:36.441Z,40
2017-04-18T08:11:36.775Z,30
2017-04-18T08:12:36.806Z,35
2017-04-18T08:13:37.087Z,40
2017-04-18T08:14:36.867Z,35
2017-04-18T08:15:36.580Z,35
2017-04-18T08:16:36.605Z,40
2017-04-18T08:17:36.943Z,35
2017-04-18T08:18:36.913Z,25
2017-04-18T08:19:37.003Z,35
2017-04-18T08:20:37.020Z,40
2017-04-18T08:21:37.087Z,40
2017-04-18T08:22:37.085Z,30
2017-04-18T08:23:37.050Z,35
2017-04-18T08:24:37.143Z,30
2017-04-18T08:25:36.909Z,25
2017-04-18T08:26:37.199Z,25
2017-04-18T08:27:37.221Z,30
2017-04-18T08:28:37.547Z,30
2017-04-18T08:29:36.986Z,40
2017-04-18T08:30:36.989Z,45
2017-04-18T08:31:36.709Z,45
2017-04-18T08:32:37.357Z,50
2017-04-18T08:33:37.523Z,45
2017-04-18T08:34:37.101Z,45
2017-04-18T08:35:37.125Z,60
2017-04-18T08:36:37.157Z,50
2017-04-18T08:37:36.863Z,40
2017-04-18T08:38:37.766Z,35
2017-04-18T08:39:37.236Z,35
2017-04-18T08:40:36.948Z,35
2017-04-18T08:41:37.624Z,25
2017-04-18T08:42:37.146Z,20
2017-04-18T08:43:37.442Z,15
2017-04-18T08:44:37.691Z,15
2017-04-18T08:45:37.700Z,20
2017-04-18T08:46:37.424Z,20
2017-04-18T08:47:37.766Z,20
2017-04-18T08:48:38.050Z,20
2017-04-18T08:49:37.818Z,20
2017-04-18T08:50:37.224Z,20
2017-04-18T08:51:38.164Z,20
2017-04-18T08:52:38.044Z,20
2017-04-18T08:53:37.869Z,20
2017-04-18T08:54:37.642Z,15
2017-04-18T08:55:37.670Z,25
2017-04-18T08:56:37.695Z,20
2017-04-18T08:57:38.036Z,20
2017-04-18T08:58:38.004Z,30
2017-04-18T08:59:38.090Z,30
2017-04-18T09:00:37.808Z,30
2017-04-18T09:01:37.836Z,40
2017-04-18T09:02:38.185Z,45
2017-04-18T09:03:38.143Z,35
2017-04-18T09:04:37.911Z,30
2017-04-18T09:05:37.936Z,45
2017-04-18T09:06:38.295Z,55
2017-04-18T09:07:37.993Z,50
2017-04-18T09:08:38.589Z,45
2017-04-18T09:09:38.051Z,45
2017-04-18T09:10:38.079Z,55
2017-04-18T09:11:38.420Z,55
2017-04-18T09:12:37.821Z,55
2017-04-18T09:13:38.416Z,50
2017-04-18T09:14:38.490Z,45
2017-04-18T09:15:37.889Z,40
2017-04-18T09:16:38.244Z,40
2017-04-18T09:17:38.576Z,35
2017-04-18T09:18:38.572Z,40
2017-04-18T09:19:38.003Z,45
2017-04-18T09:20:38.354Z,45
2017-04-18T09:21:38.714Z,45
2017-04-18T09:22:38.716Z,50
2017-04-18T09:23:38.996Z,40
2017-04-18T09:24:38.129Z,30
2017-04-18T09:25:38.469Z,40
2017-04-18T09:26:38.513Z,45
2017-04-18T09:27:38.223Z,40
2017-04-18T09:28:39.125Z,35
2017-04-18T09:29:38.903Z,35
2017-04-18T09:30:38.329Z,30
2017-04-18T09:31:38.651Z,25
2017-04-18T09:32:38.679Z,25
2017-04-18T09:33:39.016Z,25
2017-04-18T09:34:38.977Z,25
2017-04-18T09:35:39.064Z,25
2017-04-18T09:36:39.098Z,25
2017-04-18T09:37:39.271Z,25
2017-04-18T09:38:39.152Z,25
2017-04-18T09:39:39.432Z,25
2017-04-18T09:40:38.884Z,25
2017-04-18T09:41:38.918Z,35
2017-04-18T09:42:38.946Z,30
2017-04-18T09:43:38.973Z,30
2017-04-18T09:44:39.562Z,35
2017-04-18T09:45:39.336Z,35
2017-04-18T09:46:38.812Z,35
2017-04-18T09:47:38.775Z,30
2017-04-18T09:48:39.420Z,25
2017-04-18T09:49:39.386Z,25
2017-04-18T09:50:39.483Z,25
2017-04-18T09:51:39.184Z,45
2017-04-18T09:52:39.534Z,55
2017-04-18T09:53:39.553Z,55
2017-04-18T09:54:39.831Z,55
2017-04-18T09:55:39.297Z,65
2017-04-18T09:56:39.322Z,60
2017-04-18T09:57:39.350Z,55
2017-04-18T09:58:39.699Z,60
2017-04-18T09:59:39.979Z,55
2017-04-18T10:00:39.126Z,50
2017-04-18T10:01:39.460Z,60
2017-04-18T10:02:39.174Z,65
2017-04-18T10:03:39.855Z,55
2017-04-18T10:04:40.107Z,45
2017-04-18T10:05:39.574Z,50
2017-04-18T10:06:39.600Z,40
2017-04-18T10:07:39.926Z,45
2017-04-18T10:08:39.962Z,40
2017-04-18T10:09:40.235Z,35
2017-04-18T10:10:39.699Z,35
2017-04-18T10:11:40.045Z,45
2017-04-18T10:12:39.768Z,55
2017-04-18T10:13:39.460Z,40
2017-04-18T10:14:39.750Z,30
2017-04-18T10:15:39.836Z,25
2017-04-18T10:16:40.173Z,25
2017-04-18T10:17:40.206Z,25
2017-04-18T10:18:39.610Z,25
2017-04-18T10:19:40.526Z,25
2017-04-18T10:20:40.300Z,25
2017-04-18T10:21:40.032Z,30
2017-04-18T10:22:40.199Z,30
2017-04-18T10:23:40.054Z,30
2017-04-18T10:24:40.330Z,25
2017-04-18T10:25:39.784Z,25
2017-04-18T10:26:40.160Z,20
2017-04-18T10:27:40.485Z,25
2017-04-18T10:28:40.508Z,25
2017-04-18T10:29:40.471Z,25
2017-04-18T10:30:39.946Z,30
2017-04-18T10:31:40.300Z,35
2017-04-18T10:32:40.311Z,40
2017-04-18T10:33:40.342Z,45
2017-04-18T10:34:40.917Z,45
2017-04-18T10:35:40.698Z,45
2017-04-18T10:36:40.727Z,45
2017-04-18T10:37:40.751Z,45
2017-04-18T10:38:40.782Z,45
2017-04-18T10:39:40.750Z,45
2017-04-18T10:40:40.521Z,45
2017-04-18T10:41:40.859Z,45
2017-04-18T10:42:40.876Z,45
2017-04-18T10:43:39.977Z,50
2017-04-18T10:44:40.886Z,55
2017-04-18T10:45:40.655Z,50
2017-04-18T10:46:40.995Z,55
2017-04-18T10:47:40.720Z,60
2017-04-18T10:48:40.457Z,45
2017-04-18T10:49:41.333Z,65
2017-04-18T10:50:40.802Z,65
2017-04-18T10:51:41.123Z,55
2017-04-18T10:52:40.857Z,55
2017-04-18T10:53:40.556Z,65
2017-04-18T10:54:41.148Z,80
2017-04-18T10:55:41.242Z,75
2017-04-18T10:56:41.255Z,85
2017-04-18T10:57:41.294Z,90
2017-04-18T10:58:40.729Z,90
2017-04-18T10:59:41.610Z,90
2017-04-18T11:00:41.373Z,95
2017-04-18T11:01:41.102Z,70
2017-04-18T11:02:40.811Z,45
2017-04-18T11:03:41.140Z,30
2017-04-18T11:04:41.736Z,25
2017-04-18T11:05:41.200Z,25
2017-04-18T11:06:41.231Z,30
2017-04-18T11:07:41.255Z,40
2017-04-18T11:08:41.596Z,30
2017-04-18T11:09:41.565Z,20
2017-04-18T11:10:41.334Z,15
2017-04-18T11:11:41.364Z,15
2017-04-18T11:12:41.398Z,10
2017-04-18T11:13:41.455Z,10
2017-04-18T11:14:41.135Z,15
2017-04-18T11:15:41.725Z,15
2017-04-18T11:16:41.194Z,15
2017-04-18T11:17:41.838Z,15
2017-04-18T11:18:41.563Z,20
2017-04-18T11:19:40.964Z,20
2017-04-18T11:20:41.865Z,20
2017-04-18T11:21:41.637Z,25
2017-04-18T11:22:41.982Z,35
2017-04-18T11:23:42.024Z,35
2017-04-18T11:24:41.099Z,45
2017-04-18T11:25:42.325Z,55
2017-04-18T11:26:42.087Z,65
2017-04-18T11:27:41.497Z,65
2017-04-18T11:28:42.152Z,70
2017-04-18T11:29:42.180Z,85
2017-04-18T11:30:42.218Z,100
2017-04-18T11:31:42.229Z,60
2017-04-18T11:32:42.242Z,45
2017-04-18T11:33:42.282Z,35
2017-04-18T11:34:42.015Z,30
2017-04-18T11:35:42.276Z,30
2017-04-18T11:36:42.361Z,45
2017-04-18T11:37:41.762Z,185
2017-04-18T11:38:41.797Z,235
2017-04-18T11:39:42.178Z,205
2017-04-18T11:40:42.408Z,150
2017-04-18T11:41:42.505Z,195
2017-04-18T11:42:42.535Z,215
2017-04-18T11:43:42.249Z,235
2017-04-18T11:44:42.279Z,250
2017-04-18T11:45:42.550Z,240
2017-04-18T11:46:42.016Z,240
2017-04-18T11:47:42.556Z,235
2017-04-18T11:48:42.771Z,210
2017-04-18T11:49:42.731Z,255
2017-04-18T11:50:42.691Z,230
2017-04-18T11:51:42.151Z,255
2017-04-18T11:52:42.185Z,265
2017-04-18T11:53:42.842Z,260
2017-04-18T11:54:42.242Z,230
2017-04-18T11:55:43.159Z,250
2017-04-18T11:56:42.612Z,270
2017-04-18T11:57:42.640Z,280
2017-04-18T11:58:42.992Z,100
2017-04-18T11:59:43.013Z,75
2017-04-18T12:00:42.351Z,105
2017-04-18T12:01:43.060Z,80
2017-04-18T12:02:42.795Z,85
2017-04-18T12:03:42.814Z,160
2017-04-18T12:04:43.149Z,65
2017-04-18T12:05:42.815Z,55
2017-04-18T12:06:42.907Z,50
2017-04-18T12:07:42.625Z,50
2017-04-18T12:08:43.264Z,60
2017-04-18T12:09:42.984Z,70
2017-04-18T12:10:42.956Z,85
2017-04-18T12:11:43.055Z,100
2017-04-18T12:12:43.071Z,225
2017-04-18T12:13:43.416Z,75
2017-04-18T12:14:43.138Z,50
2017-04-18T12:15:43.735Z,45
2017-04-18T12:16:43.192Z,55
2017-04-18T12:17:42.913Z,50
2017-04-18T12:18:43.254Z,40
2017-04-18T12:19:42.966Z,260
2017-04-18T12:20:43.614Z,275
2017-04-18T12:21:43.341Z,285
2017-04-18T12:22:43.377Z,310
2017-04-18T12:23:43.483Z,260
2017-04-18T12:24:43.417Z,160
2017-04-18T12:25:43.705Z,85
2017-04-18T12:26:43.179Z,45
2017-04-18T12:27:43.520Z,35
2017-04-18T12:28:43.232Z,30
2017-04-18T12:29:43.581Z,25
2017-04-18T12:30:44.165Z,20
2017-04-18T12:31:43.645Z,20
2017-04-18T12:32:42.727Z,20
2017-04-18T12:33:43.680Z,15
2017-04-18T12:34:44.033Z,15
2017-04-18T12:35:44.020Z,20
2017-04-18T12:36:43.473Z,20
2017-04-18T12:37:43.183Z,25
2017-04-18T12:38:44.149Z,30
2017-04-18T12:39:43.556Z,30
2017-04-18T12:40:44.557Z,25
2017-04-18T12:41:44.242Z,25
2017-04-18T12:42:43.643Z,30
2017-04-18T12:43:43.348Z,40
2017-04-18T12:44:44.323Z,50
2017-04-18T12:45:44.046Z,155
2017-04-18T12:46:44.305Z,170
2017-04-18T12:47:44.089Z,190
2017-04-18T12:48:44.126Z,205
2017-04-18T12:49:44.165Z,235
2017-04-18T12:50:44.200Z,225
2017-04-18T12:51:44.483Z,195
2017-04-18T12:52:44.234Z,60
2017-04-18T12:53:44.272Z,145
2017-04-18T12:54:43.988Z,45
2017-04-18T12:55:44.332Z,50
2017-04-18T12:56:44.618Z,65
2017-04-18T12:57:44.393Z,75
2017-04-18T12:58:44.410Z,60
2017-04-18T12:59:44.443Z,45
2017-04-18T13:00:44.800Z,45
2017-04-18T13:01:44.760Z,50
2017-04-18T13:02:44.532Z,55
2017-04-18T13:03:44.886Z,50
2017-04-18T13:04:44.283Z,45
2017-04-18T13:05:44.625Z,40
2017-04-18T13:06:44.903Z,40
2017-04-18T13:07:44.985Z,40
2017-04-18T13:08:44.715Z,35
2017-04-18T13:09:44.747Z,30
2017-04-18T13:10:45.088Z,25
2017-04-18T13:11:45.361Z,20
2017-04-18T13:12:44.832Z,20
2017-04-18T13:13:44.859Z,15
2017-04-18T13:14:44.567Z,15
2017-04-18T13:15:44.591Z,15
2017-04-18T13:16:45.512Z,15
2017-04-18T13:17:45.290Z,20
2017-04-18T13:18:45.319Z,20
2017-04-18T13:19:45.380Z,25
2017-04-18T13:20:45.376Z,30
2017-04-18T13:21:45.027Z,45
2017-04-18T13:22:45.119Z,75
2017-04-18T13:23:45.149Z,110
2017-04-18T13:24:45.495Z,130
2017-04-18T13:25:44.258Z,140
2017-04-18T13:26:45.797Z,140
2017-04-18T13:27:45.263Z,135
2017-04-18T13:28:45.357Z,140
2017-04-18T13:29:45.006Z,150
2017-04-18T13:30:45.660Z,150
2017-04-18T13:31:45.940Z,155
2017-04-18T13:32:45.399Z,160
2017-04-18T13:33:45.759Z,170
2017-04-18T13:34:45.460Z,150
2017-04-18T13:35:45.798Z,145
2017-04-18T13:36:45.775Z,130
2017-04-18T13:37:45.255Z,125
2017-04-18T13:38:45.273Z,125
2017-04-18T13:39:45.614Z,45
2017-04-18T13:40:45.647Z,35
2017-04-18T13:41:46.238Z,35
2017-04-18T13:42:45.394Z,40
2017-04-18T13:43:46.056Z,40
2017-04-18T13:44:45.785Z,45
2017-04-18T13:45:46.107Z,45
2017-04-18T13:46:46.212Z,50
2017-04-18T13:47:45.228Z,130
2017-04-18T13:48:45.568Z,135
2017-04-18T13:49:45.596Z,155
2017-04-18T13:50:45.323Z,95
2017-04-18T13:51:46.268Z,100
2017-04-18T13:52:46.319Z,80
2017-04-18T13:53:46.042Z,65
2017-04-18T13:54:45.752Z,85
2017-04-18T13:55:45.780Z,90
2017-04-18T13:56:46.691Z,110
2017-04-18T13:57:45.847Z,125
2017-04-18T13:58:46.504Z,120
2017-04-18T13:59:46.520Z,120
2017-04-18T14:00:46.557Z,125
2017-04-18T14:01:46.572Z,130
2017-04-18T14:02:46.305Z,120
2017-04-18T14:03:46.338Z,115
2017-04-18T14:04:46.743Z,115
2017-04-18T14:05:46.503Z,115
2017-04-18T14:06:46.365Z,115
2017-04-18T14:07:46.766Z,105
2017-04-18T14:08:46.505Z,130
2017-04-18T14:09:46.834Z,130
2017-04-18T14:10:46.540Z,120
2017-04-18T14:11:46.834Z,130
2017-04-18T14:12:46.919Z,80
2017-04-18T14:13:47.030Z,95
2017-04-18T14:14:46.668Z,75
2017-04-18T14:15:47.013Z,65
2017-04-18T14:16:46.973Z,50
2017-04-18T14:17:47.074Z,40
2017-04-18T14:18:46.790Z,40
2017-04-18T14:19:47.131Z,40
2017-04-18T14:20:47.169Z,55
2017-04-18T14:21:47.133Z,80
2017-04-18T14:22:46.911Z,100
2017-04-18T14:23:47.255Z,100
2017-04-18T14:24:46.968Z,120
2017-04-18T14:25:46.689Z,125
2017-04-18T14:26:47.596Z,110